nws-alerts: Checking more than four warning/county codes can delay the loading of your pages. You should use a cron job to get the data.
EllijayWeather Station Historical Data
Daily Summary for September 19, 2018 Units:  English    Metric   Both
Daily Weekly Monthly Yearly Custom
  High: Low: Average:
Temperature: 87.1 °F 61.9 °F 72.1 °F
Dew Point: 74.5 °F 57.9 °F 65.8 °F
Humidity: 88% 48% 82%
Wind Speed: 0mph 0mph 0mph
Wind Gust: 0mph - -
Wind- - North
Pressure: 30.08 in 29.98 in -
Precipitation: 0 in    
Historical Graphs
 
 
Tabular Data for September 19, 2018
Time Temperature Dew Point Pressure Wind Wind Speed Wind Gust Humidity Rainfall Rate (Hourly) solar
00:04 67.8 °F 63.9 °F 29.99 in Calm     87% 0 in meteobridge W/m2
00:09 67.8 °F 63.9 °F 29.99 in Calm     87% 0 in meteobridge W/m2
00:14 67.6 °F 63.7 °F 29.98 in Calm     87% 0 in meteobridge W/m2
00:19 67.6 °F 63.7 °F 29.99 in Calm     87% 0 in meteobridge W/m2
00:24 67.5 °F 63.5 °F 29.99 in Calm     87% 0 in meteobridge W/m2
00:29 67.5 °F 63.5 °F 29.98 in Calm     87% 0 in meteobridge W/m2
00:34 67.3 °F 63.3 °F 29.99 in Calm     87% 0 in meteobridge W/m2
00:39 67.3 °F 63.3 °F 29.99 in Calm     87% 0 in meteobridge W/m2
00:44 67.1 °F 63.1 °F 29.99 in Calm     87% 0 in meteobridge W/m2
00:49 66.9 °F 63 °F 29.99 in Calm     87% 0 in meteobridge W/m2
00:54 66.9 °F 63 °F 29.99 in Calm     87% 0 in meteobridge W/m2
00:59 66.7 °F 62.8 °F 29.99 in Calm     87% 0 in meteobridge W/m2
01:04 66.7 °F 62.8 °F 29.99 in Calm     87% 0 in meteobridge W/m2
01:09 66.6 °F 62.6 °F 29.99 in Calm     87% 0 in meteobridge W/m2
01:14 66.6 °F 62.6 °F 29.99 in Calm     87% 0 in meteobridge W/m2
01:19 66.4 °F 62.4 °F 29.99 in Calm     87% 0 in meteobridge W/m2
01:24 66.4 °F 62.4 °F 29.99 in Calm     87% 0 in meteobridge W/m2
01:29 66.4 °F 62.4 °F 29.99 in Calm     87% 0 in meteobridge W/m2
01:34 66.2 °F 62.2 °F 29.99 in Calm     87% 0 in meteobridge W/m2
01:39 66 °F 62.1 °F 29.99 in Calm     87% 0 in meteobridge W/m2
01:44 65.8 °F 61.9 °F 29.99 in Calm     87% 0 in meteobridge W/m2
01:49 65.8 °F 62.2 °F 29.99 in Calm     88% 0 in meteobridge W/m2
01:54 65.8 °F 61.9 °F 29.99 in Calm     87% 0 in meteobridge W/m2
01:59 65.7 °F 61.7 °F 29.99 in Calm     87% 0 in meteobridge W/m2
02:04 65.7 °F 61.7 °F 29.99 in Calm     87% 0 in meteobridge W/m2
02:09 65.7 °F 61.7 °F 29.99 in Calm     87% 0 in meteobridge W/m2
02:14 65.5 °F 61.5 °F 29.99 in Calm     87% 0 in meteobridge W/m2
02:19 65.5 °F 61.5 °F 29.99 in Calm     87% 0 in meteobridge W/m2
02:24 65.3 °F 61.3 °F 29.99 in Calm     87% 0 in meteobridge W/m2
02:29 65.3 °F 61.3 °F 29.99 in Calm     87% 0 in meteobridge W/m2
02:34 65.1 °F 61.2 °F 29.99 in Calm     87% 0 in meteobridge W/m2
02:39 65.1 °F 61.2 °F 29.99 in Calm     87% 0 in meteobridge W/m2
02:44 64.9 °F 61 °F 29.99 in Calm     87% 0 in meteobridge W/m2
02:49 64.9 °F 61 °F 29.99 in Calm     87% 0 in meteobridge W/m2
02:54 64.9 °F 61 °F 29.99 in Calm     87% 0 in meteobridge W/m2
02:59 64.8 °F 60.8 °F 29.99 in Calm     87% 0 in meteobridge W/m2
03:04 64.8 °F 60.8 °F 29.99 in Calm     87% 0 in meteobridge W/m2
03:09 64.6 °F 60.6 °F 29.99 in Calm     87% 0 in meteobridge W/m2
03:14 64.6 °F 60.6 °F 29.98 in Calm     87% 0 in meteobridge W/m2
03:19 64.4 °F 60.4 °F 29.98 in Calm     87% 0 in meteobridge W/m2
03:24 64.4 °F 60.4 °F 29.98 in Calm     87% 0 in meteobridge W/m2
03:29 64.2 °F 60.3 °F 29.98 in Calm     87% 0 in meteobridge W/m2
03:34 64.2 °F 60.3 °F 29.98 in Calm     87% 0 in meteobridge W/m2
03:39 64.2 °F 60.3 °F 29.98 in Calm     87% 0 in meteobridge W/m2
03:44 64 °F 60.1 °F 29.98 in Calm     87% 0 in meteobridge W/m2
03:49 64 °F 60.1 °F 29.98 in Calm     87% 0 in meteobridge W/m2
03:54 64 °F 60.1 °F 29.98 in Calm     87% 0 in meteobridge W/m2
03:59 63.9 °F 59.9 °F 29.98 in Calm     87% 0 in meteobridge W/m2
04:04 63.9 °F 59.9 °F 29.98 in Calm     87% 0 in meteobridge W/m2
04:09 63.9 °F 59.9 °F 29.98 in Calm     87% 0 in meteobridge W/m2
04:14 63.9 °F 59.9 °F 29.98 in Calm     87% 0 in meteobridge W/m2
04:19 63.9 °F 59.9 °F 29.98 in Calm     87% 0 in meteobridge W/m2
04:24 63.9 °F 59.9 °F 29.98 in Calm     87% 0 in meteobridge W/m2
04:29 63.7 °F 59.7 °F 29.98 in Calm     87% 0 in meteobridge W/m2
04:34 63.7 °F 59.7 °F 29.99 in Calm     87% 0 in meteobridge W/m2
04:39 63.7 °F 59.7 °F 29.99 in Calm     87% 0 in meteobridge W/m2
04:44 63.5 °F 59.5 °F 29.99 in Calm     87% 0 in meteobridge W/m2
04:49 63.5 °F 59.5 °F 29.99 in Calm     87% 0 in meteobridge W/m2
04:54 63.3 °F 59.4 °F 29.99 in Calm     87% 0 in meteobridge W/m2
04:59 63.3 °F 59.4 °F 29.99 in Calm     87% 0 in meteobridge W/m2
05:04 63.1 °F 59.2 °F 29.99 in Calm     87% 0 in meteobridge W/m2
05:09 63.1 °F 59.2 °F 29.99 in Calm     87% 0 in meteobridge W/m2
05:14 63.1 °F 59.2 °F 29.99 in Calm     87% 0 in meteobridge W/m2
05:19 63.1 °F 59.2 °F 29.99 in Calm     87% 0 in meteobridge W/m2
05:24 63 °F 59 °F 29.99 in Calm     87% 0 in meteobridge W/m2
05:29 63 °F 59 °F 29.99 in Calm     87% 0 in meteobridge W/m2
05:34 63 °F 59 °F 30.00 in Calm     87% 0 in meteobridge W/m2
05:39 62.8 °F 58.8 °F 29.99 in Calm     87% 0 in meteobridge W/m2
05:44 62.8 °F 58.8 °F 29.99 in Calm     87% 0 in meteobridge W/m2
05:49 62.8 °F 58.8 °F 30.00 in Calm     87% 0 in meteobridge W/m2
05:54 62.8 °F 58.8 °F 30.00 in Calm     87% 0 in meteobridge W/m2
05:59 62.6 °F 58.6 °F 30.00 in Calm     87% 0 in meteobridge W/m2
06:04 62.6 °F 58.6 °F 30.00 in Calm     87% 0 in meteobridge W/m2
06:09 62.6 °F 58.6 °F 30.01 in Calm     87% 0 in meteobridge W/m2
06:14 62.6 °F 58.6 °F 30.01 in Calm     87% 0 in meteobridge W/m2
06:19 62.4 °F 58.5 °F 30.01 in Calm     87% 0 in meteobridge W/m2
06:24 62.4 °F 58.5 °F 30.01 in Calm     87% 0 in meteobridge W/m2
06:29 62.4 °F 58.5 °F 30.01 in Calm     87% 0 in meteobridge W/m2
06:34 62.2 °F 58.3 °F 30.01 in Calm     87% 0 in meteobridge W/m2
06:39 62.2 °F 58.3 °F 30.01 in Calm     87% 0 in meteobridge W/m2
06:44 62.1 °F 58.1 °F 30.01 in Calm     87% 0 in meteobridge W/m2
06:48 62.1 °F 58.1 °F 30.01 in Calm     87% 0 in meteobridge W/m2
06:54 62.1 °F 58.1 °F 30.02 in Calm     87% 0 in meteobridge W/m2
06:59 62.1 °F 58.1 °F 30.02 in Calm     87% 0 in meteobridge W/m2
07:04 61.9 °F 57.9 °F 30.02 in Calm     87% 0 in meteobridge W/m2
07:09 61.9 °F 57.9 °F 30.02 in Calm     87% 0 in meteobridge W/m2
07:14 61.9 °F 57.9 °F 30.02 in Calm     87% 0 in meteobridge W/m2
07:19 61.9 °F 57.9 °F 30.03 in Calm     87% 0 in meteobridge W/m2
07:24 61.9 °F 57.9 °F 30.03 in Calm     87% 0 in meteobridge W/m2
07:29 61.9 °F 57.9 °F 30.03 in Calm     87% 0 in meteobridge W/m2
07:34 61.9 °F 57.9 °F 30.03 in Calm     87% 0 in meteobridge W/m2
07:39 61.9 °F 57.9 °F 30.03 in Calm     87% 0 in meteobridge W/m2
07:44 61.9 °F 57.9 °F 30.03 in Calm     87% 0 in meteobridge W/m2
07:49 61.9 °F 57.9 °F 30.04 in Calm     87% 0 in meteobridge W/m2
07:54 61.9 °F 57.9 °F 30.04 in Calm     87% 0 in meteobridge W/m2
07:59 62.1 °F 58.1 °F 30.04 in Calm     87% 0 in meteobridge W/m2
08:04 62.2 °F 58.3 °F 30.04 in Calm     87% 0 in meteobridge W/m2
08:09 62.2 °F 58.3 °F 30.05 in Calm     87% 0 in meteobridge W/m2
08:14 62.2 °F 58.3 °F 30.05 in Calm     87% 0 in meteobridge W/m2
08:19 62.4 °F 58.5 °F 30.05 in Calm     87% 0 in meteobridge W/m2
08:24 62.4 °F 58.5 °F 30.05 in Calm     87% 0 in meteobridge W/m2
08:29 62.4 °F 58.5 °F 30.05 in Calm     87% 0 in meteobridge W/m2
08:34 62.8 °F 58.8 °F 30.05 in Calm     87% 0 in meteobridge W/m2
08:39 62.8 °F 58.8 °F 30.05 in Calm     87% 0 in meteobridge W/m2
08:44 63 °F 59 °F 30.05 in Calm     87% 0 in meteobridge W/m2
08:49 63.3 °F 59.4 °F 30.05 in Calm     87% 0 in meteobridge W/m2
08:54 63.5 °F 59.5 °F 30.06 in Calm     87% 0 in meteobridge W/m2
08:59 63.9 °F 59.9 °F 30.06 in Calm     87% 0 in meteobridge W/m2
09:04 64 °F 60.1 °F 30.06 in Calm     87% 0 in meteobridge W/m2
09:09 64.6 °F 60.3 °F 30.06 in Calm     86% 0 in meteobridge W/m2
09:14 64.9 °F 60.6 °F 30.06 in Calm     86% 0 in meteobridge W/m2
09:19 65.5 °F 61.2 °F 30.06 in Calm     86% 0 in meteobridge W/m2
09:24 65.8 °F 61.5 °F 30.06 in Calm     86% 0 in meteobridge W/m2
09:29 66 °F 61.7 °F 30.06 in Calm     86% 0 in meteobridge W/m2
09:34 66.7 °F 62.4 °F 30.06 in Calm     86% 0 in meteobridge W/m2
09:39 67.3 °F 63 °F 30.06 in Calm     86% 0 in meteobridge W/m2
09:44 67.6 °F 63.3 °F 30.06 in Calm     86% 0 in meteobridge W/m2
09:49 68.2 °F 63.9 °F 30.06 in Calm     86% 0 in meteobridge W/m2
09:54 68.5 °F 64.2 °F 30.06 in Calm     86% 0 in meteobridge W/m2
09:59 69.1 °F 64.8 °F 30.07 in Calm     86% 0 in meteobridge W/m2
10:04 69.3 °F 64.9 °F 30.07 in Calm     86% 0 in meteobridge W/m2
10:09 69.6 °F 65.3 °F 30.07 in Calm     86% 0 in meteobridge W/m2
10:14 70.2 °F 65.8 °F 30.07 in Calm     86% 0 in meteobridge W/m2
10:19 70.3 °F 66 °F 30.06 in Calm     86% 0 in meteobridge W/m2
10:24 70.7 °F 66.4 °F 30.06 in Calm     86% 0 in meteobridge W/m2
10:29 71.1 °F 66.9 °F 30.07 in Calm     87% 0 in meteobridge W/m2
10:34 71.4 °F 67.3 °F 30.07 in Calm     87% 0 in meteobridge W/m2
10:39 72 °F 67.8 °F 30.07 in Calm     87% 0 in meteobridge W/m2
10:44 72.7 °F 68.9 °F 30.07 in Calm     88% 0 in meteobridge W/m2
10:49 73.2 °F 69.4 °F 30.07 in Calm     88% 0 in meteobridge W/m2
10:54 73.8 °F 69.6 °F 30.07 in Calm     87% 0 in meteobridge W/m2
10:59 74.5 °F 70.3 °F 30.08 in Calm     87% 0 in meteobridge W/m2
11:04 74.8 °F 70.3 °F 30.07 in Calm     86% 0 in meteobridge W/m2
11:09 75.7 °F 70.9 °F 30.07 in Calm     85% 0 in meteobridge W/m2
11:14 76.5 °F 70.9 °F 30.07 in Calm     83% 0 in meteobridge W/m2
11:19 77 °F 71.1 °F 30.07 in Calm     82% 0 in meteobridge W/m2
11:24 77.5 °F 71.6 °F 30.07 in Calm     82% 0 in meteobridge W/m2
11:29 77.7 °F 71.4 °F 30.07 in Calm     81% 0 in meteobridge W/m2
11:34 78.3 °F 72 °F 30.06 in Calm     81% 0 in meteobridge W/m2
11:39 78.6 °F 71.6 °F 30.06 in Calm     79% 0 in meteobridge W/m2
11:44 79.2 °F 71.2 °F 30.06 in Calm     77% 0 in meteobridge W/m2
11:49 79.3 °F 70.7 °F 30.06 in Calm     75% 0 in meteobridge W/m2
11:54 79.9 °F 70.5 °F 30.06 in Calm     73% 0 in meteobridge W/m2
11:59 80.4 °F 70.5 °F 30.06 in Calm     72% 0 in meteobridge W/m2
12:04 81 °F 71.1 °F 30.06 in Calm     72% 0 in meteobridge W/m2
12:09 81.3 °F 71.8 °F 30.06 in Calm     73% 0 in meteobridge W/m2
12:14 81.3 °F 70.5 °F 30.06 in Calm     70% 0 in meteobridge W/m2
12:19 81.7 °F 71.4 °F 30.06 in Calm     71% 0 in meteobridge W/m2
12:24 82 °F 72.5 °F 30.06 in Calm     73% 0 in meteobridge W/m2
12:29 82 °F 72.1 °F 30.05 in Calm     72% 0 in meteobridge W/m2
12:34 82.2 °F 72.7 °F 30.05 in Calm     73% 0 in meteobridge W/m2
12:39 82.6 °F 73.4 °F 30.05 in Calm     74% 0 in meteobridge W/m2
12:44 82.4 °F 72 °F 30.05 in Calm     71% 0 in meteobridge W/m2
12:49 82.8 °F 71.6 °F 30.04 in Calm     69% 0 in meteobridge W/m2
12:54 82.9 °F 71.8 °F 30.04 in Calm     69% 0 in meteobridge W/m2
12:59 83.1 °F 72 °F 30.04 in Calm     69% 0 in meteobridge W/m2
13:04 83.5 °F 73 °F 30.04 in Calm     71% 0 in meteobridge W/m2
13:09 83.5 °F 71.4 °F 30.04 in Calm     67% 0 in meteobridge W/m2
13:14 83.7 °F 71.6 °F 30.04 in Calm     67% 0 in meteobridge W/m2
13:19 83.8 °F 71.2 °F 30.04 in Calm     66% 0 in meteobridge W/m2
13:24 84 °F 71.1 °F 30.03 in Calm     65% 0 in meteobridge W/m2
13:29 84.4 °F 70 °F 30.03 in Calm     62% 0 in meteobridge W/m2
13:34 84.6 °F 68.7 °F 30.03 in Calm     59% 0 in meteobridge W/m2
13:39 84.7 °F 68.4 °F 30.03 in Calm     58% 0 in meteobridge W/m2
13:44 84.7 °F 67.3 °F 30.03 in Calm     56% 0 in meteobridge W/m2
13:49 85.1 °F 67.6 °F 30.03 in Calm     56% 0 in meteobridge W/m2
13:54 85.3 °F 67.8 °F 30.03 in Calm     56% 0 in meteobridge W/m2
13:59 85.5 °F 68 °F 30.03 in Calm     56% 0 in meteobridge W/m2
14:04 85.6 °F 67.6 °F 30.03 in Calm     55% 0 in meteobridge W/m2
14:09 85.8 °F 67.8 °F 30.02 in Calm     55% 0 in meteobridge W/m2
14:14 86.2 °F 65.8 °F 30.02 in Calm     51% 0 in meteobridge W/m2
14:19 86.4 °F 67.8 °F 30.02 in Calm     54% 0 in meteobridge W/m2
14:24 86.5 °F 65.7 °F 30.02 in Calm     50% 0 in meteobridge W/m2
14:29 86.7 °F 67.5 °F 30.02 in Calm     53% 0 in meteobridge W/m2
14:34 86.7 °F 66.4 °F 30.02 in Calm     51% 0 in meteobridge W/m2
14:39 86.9 °F 64.8 °F 30.02 in Calm     48% 0 in meteobridge W/m2
14:44 87.1 °F 67.8 °F 30.01 in Calm     53% 0 in meteobridge W/m2
14:49 86.7 °F 66.9 °F 30.01 in Calm     52% 0 in meteobridge W/m2
14:54 86.4 °F 69.3 °F 30.01 in Calm     57% 0 in meteobridge W/m2
14:59 85.8 °F 70.3 °F 30.01 in Calm     60% 0 in meteobridge W/m2
15:04 85.6 °F 70.2 °F 30.01 in Calm     60% 0 in meteobridge W/m2
15:09 85.6 °F 69.6 °F 30.01 in Calm     59% 0 in meteobridge W/m2
15:14 85.3 °F 71.2 °F 30.01 in Calm     63% 0 in meteobridge W/m2
15:19 84.9 °F 71.4 °F 30.01 in Calm     64% 0 in meteobridge W/m2
15:24 84.9 °F 68.9 °F 30.00 in Calm     59% 0 in meteobridge W/m2
15:29 84.9 °F 69.4 °F 30.00 in Calm     60% 0 in meteobridge W/m2
15:34 85.3 °F 69.8 °F 30.00 in Calm     60% 0 in meteobridge W/m2
15:39 85.3 °F 72.1 °F 30.00 in Calm     65% 0 in meteobridge W/m2
15:44 84.9 °F 71.8 °F 30.00 in Calm     65% 0 in meteobridge W/m2
15:49 84.4 °F 72.7 °F 30.00 in Calm     68% 0 in meteobridge W/m2
15:54 84 °F 71.4 °F 30.00 in Calm     66% 0 in meteobridge W/m2
15:59 84 °F 68.7 °F 30.00 in Calm     60% 0 in meteobridge W/m2
16:04 84.6 °F 71.1 °F 30.00 in Calm     64% 0 in meteobridge W/m2
16:09 84.6 °F 73.2 °F 30.00 in Calm     69% 0 in meteobridge W/m2
16:14 84 °F 73.9 °F 29.99 in Calm     72% 0 in meteobridge W/m2
16:19 83.5 °F 73.9 °F 29.99 in Calm     73% 0 in meteobridge W/m2
16:24 82.9 °F 73.8 °F 29.99 in Calm     74% 0 in meteobridge W/m2
16:29 82 °F 73.8 °F 29.99 in Calm     76% 0 in meteobridge W/m2
16:34 81.3 °F 73.8 °F 29.99 in Calm     78% 0 in meteobridge W/m2
16:39 80.8 °F 73.6 °F 29.99 in Calm     79% 0 in meteobridge W/m2
16:44 80.2 °F 73.6 °F 29.99 in Calm     80% 0 in meteobridge W/m2
16:49 80.2 °F 73.6 °F 29.99 in Calm     80% 0 in meteobridge W/m2
16:54 80.6 °F 71.1 °F 29.99 in Calm     73% 0 in meteobridge W/m2
16:59 81.7 °F 73.8 °F 29.99 in Calm     77% 0 in meteobridge W/m2
17:04 82 °F 74.5 °F 29.99 in Calm     78% 0 in meteobridge W/m2
17:09 82 °F 74.1 °F 29.99 in Calm     77% 0 in meteobridge W/m2
17:14 81.7 °F 74.1 °F 29.99 in Calm     78% 0 in meteobridge W/m2
17:19 81 °F 74.1 °F 29.99 in Calm     80% 0 in meteobridge W/m2
17:24 80.4 °F 73.8 °F 29.99 in Calm     80% 0 in meteobridge W/m2
17:29 79.9 °F 73.6 °F 29.99 in Calm     81% 0 in meteobridge W/m2
17:34 79.5 °F 73.9 °F 29.99 in Calm     83% 0 in meteobridge W/m2
17:39 79.3 °F 74.1 °F 29.99 in Calm     84% 0 in meteobridge W/m2
17:44 79.3 °F 73.4 °F 29.99 in Calm     82% 0 in meteobridge W/m2
17:49 79.5 °F 73.6 °F 29.99 in Calm     82% 0 in meteobridge W/m2
17:54 79.3 °F 73.8 °F 29.99 in Calm     83% 0 in meteobridge W/m2
17:59 79.3 °F 73.8 °F 29.99 in Calm     83% 0 in meteobridge W/m2
18:04 79 °F 73.8 °F 29.99 in Calm     84% 0 in meteobridge W/m2
18:09 78.6 °F 73.4 °F 29.99 in Calm     84% 0 in meteobridge W/m2
18:14 78.3 °F 73 °F 29.99 in Calm     84% 0 in meteobridge W/m2
18:19 78.1 °F 73.2 °F 29.99 in Calm     85% 0 in meteobridge W/m2
18:24 77.7 °F 72.9 °F 29.99 in Calm     85% 0 in meteobridge W/m2
18:29 77.4 °F 72.5 °F 30.00 in Calm     85% 0 in meteobridge W/m2
18:34 77.2 °F 72.3 °F 30.00 in Calm     85% 0 in meteobridge W/m2
18:39 77 °F 72.5 °F 30.00 in Calm     86% 0 in meteobridge W/m2
18:44 76.8 °F 72.3 °F 30.00 in Calm     86% 0 in meteobridge W/m2
18:49 76.6 °F 72.1 °F 30.00 in Calm     86% 0 in meteobridge W/m2
18:54 76.5 °F 72 °F 30.00 in Calm     86% 0 in meteobridge W/m2
18:59 76.3 °F 71.8 °F 30.00 in Calm     86% 0 in meteobridge W/m2
19:04 76.1 °F 71.6 °F 30.00 in Calm     86% 0 in meteobridge W/m2
19:09 75.7 °F 71.2 °F 30.00 in Calm     86% 0 in meteobridge W/m2
19:14 75.6 °F 71.1 °F 30.00 in Calm     86% 0 in meteobridge W/m2
19:19 75.4 °F 70.9 °F 30.00 in Calm     86% 0 in meteobridge W/m2
19:24 75.2 °F 70.7 °F 30.00 in Calm     86% 0 in meteobridge W/m2
19:29 74.8 °F 70.7 °F 30.01 in Calm     87% 0 in meteobridge W/m2
19:34 74.8 °F 70.7 °F 30.01 in Calm     87% 0 in meteobridge W/m2
19:39 74.7 °F 70.5 °F 30.01 in Calm     87% 0 in meteobridge W/m2
19:44 74.5 °F 70.3 °F 30.01 in Calm     87% 0 in meteobridge W/m2
19:49 74.3 °F 70.2 °F 30.01 in Calm     87% 0 in meteobridge W/m2
19:54 74.1 °F 70 °F 30.01 in Calm     87% 0 in meteobridge W/m2
19:59 73.9 °F 69.8 °F 30.01 in Calm     87% 0 in meteobridge W/m2
20:04 73.8 °F 69.6 °F 30.01 in Calm     87% 0 in meteobridge W/m2
20:09 73.6 °F 69.4 °F 30.01 in Calm     87% 0 in meteobridge W/m2
20:14 73.4 °F 69.3 °F 30.01 in Calm     87% 0 in meteobridge W/m2
20:19 73.2 °F 69.1 °F 30.01 in Calm     87% 0 in meteobridge W/m2
20:24 73 °F 68.9 °F 30.01 in Calm     87% 0 in meteobridge W/m2
20:29 73 °F 68.9 °F 30.02 in Calm     87% 0 in meteobridge W/m2
20:34 72.9 °F 68.7 °F 30.02 in Calm     87% 0 in meteobridge W/m2
20:39 72.7 °F 68.5 °F 30.02 in Calm     87% 0 in meteobridge W/m2
20:44 72.5 °F 68.4 °F 30.02 in Calm     87% 0 in meteobridge W/m2
20:49 72.3 °F 68.2 °F 30.03 in Calm     87% 0 in meteobridge W/m2
20:54 72.3 °F 68.2 °F 30.03 in Calm     87% 0 in meteobridge W/m2
20:59 72.1 °F 68 °F 30.03 in Calm     87% 0 in meteobridge W/m2
21:04 72.1 °F 68 °F 30.03 in Calm     87% 0 in meteobridge W/m2
21:09 72 °F 67.8 °F 30.03 in Calm     87% 0 in meteobridge W/m2
21:14 71.8 °F 67.6 °F 30.03 in Calm     87% 0 in meteobridge W/m2
21:19 71.8 °F 67.6 °F 30.04 in Calm     87% 0 in meteobridge W/m2
21:24 71.8 °F 67.6 °F 30.04 in Calm     87% 0 in meteobridge W/m2
21:29 71.4 °F 67.3 °F 30.04 in Calm     87% 0 in meteobridge W/m2
21:34 71.4 °F 67.3 °F 30.04 in Calm     87% 0 in meteobridge W/m2
21:39 71.2 °F 67.1 °F 30.04 in Calm     87% 0 in meteobridge W/m2
21:44 71.2 °F 67.1 °F 30.05 in Calm     87% 0 in meteobridge W/m2
21:49 71.2 °F 67.1 °F 30.05 in Calm     87% 0 in meteobridge W/m2
21:54 71.1 °F 66.9 °F 30.05 in Calm     87% 0 in meteobridge W/m2
21:59 71.1 °F 66.9 °F 30.05 in Calm     87% 0 in meteobridge W/m2
22:04 70.9 °F 66.7 °F 30.05 in Calm     87% 0 in meteobridge W/m2
22:09 70.9 °F 66.7 °F 30.05 in Calm     87% 0 in meteobridge W/m2
22:14 70.9 °F 66.7 °F 30.05 in Calm     87% 0 in meteobridge W/m2
22:19 70.7 °F 66.6 °F 30.05 in Calm     87% 0 in meteobridge W/m2
22:24 70.5 °F 66.4 °F 30.05 in Calm     87% 0 in meteobridge W/m2
22:29 70.5 °F 66.4 °F 30.06 in Calm     87% 0 in meteobridge W/m2
22:34 70.3 °F 66.2 °F 30.05 in Calm     87% 0 in meteobridge W/m2
22:39 70.3 °F 66.2 °F 30.05 in Calm     87% 0 in meteobridge W/m2
22:44 70.3 °F 66.2 °F 30.05 in Calm     87% 0 in meteobridge W/m2
22:49 70.2 °F 66 °F 30.06 in Calm     87% 0 in meteobridge W/m2
22:54 70.2 °F 66 °F 30.06 in Calm     87% 0 in meteobridge W/m2
22:59 70 °F 66 °F 30.06 in Calm     87% 0 in meteobridge W/m2
23:04 70 °F 66 °F 30.06 in Calm     87% 0 in meteobridge W/m2
23:09 70 °F 66 °F 30.06 in Calm     87% 0 in meteobridge W/m2
23:14 69.8 °F 65.8 °F 30.06 in Calm     87% 0 in meteobridge W/m2
23:19 69.6 °F 65.7 °F 30.06 in Calm     87% 0 in meteobridge W/m2
23:24 69.6 °F 65.7 °F 30.06 in Calm     87% 0 in meteobridge W/m2
23:29 69.6 °F 65.7 °F 30.06 in Calm     87% 0 in meteobridge W/m2
23:34 69.4 °F 65.5 °F 30.06 in Calm     87% 0 in meteobridge W/m2
23:39 69.4 °F 65.5 °F 30.06 in Calm     87% 0 in meteobridge W/m2
23:44 69.4 °F 65.5 °F 30.06 in Calm     87% 0 in meteobridge W/m2
23:49 69.4 °F 65.5 °F 30.06 in Calm     87% 0 in meteobridge W/m2
23:54 69.3 °F 64.9 °F 30.06 in Calm     86% 0 in meteobridge W/m2
23:59 69.3 °F 64.9 °F 30.06 in Calm     86% 0 in meteobridge W/m2
EllijayWeather
Compliments of Weather Underground - 2.5 mb